createdAt,value
2018-10-07T16:02:25.005Z,16.40
2018-10-07T16:04:53.187Z,13.60
2018-10-07T16:07:21.392Z,16.20
2018-10-07T16:09:49.584Z,16.10
2018-10-07T16:12:17.728Z,16.00
2018-10-07T16:14:45.889Z,15.80
2018-10-07T16:17:14.081Z,15.70
2018-10-07T16:19:42.249Z,15.70
2018-10-07T16:22:10.433Z,15.60
2018-10-07T16:24:38.601Z,15.50
2018-10-07T16:27:06.837Z,15.50
2018-10-07T16:29:35.015Z,15.40
2018-10-07T16:32:03.233Z,15.40
2018-10-07T16:34:31.355Z,15.50
2018-10-07T16:36:59.536Z,15.30
2018-10-07T16:39:27.750Z,15.20
2018-10-07T16:41:55.918Z,15.10
2018-10-07T16:44:24.104Z,15.00
2018-10-07T16:46:53.089Z,14.90
2018-10-07T16:49:21.265Z,14.90
2018-10-07T16:51:49.436Z,14.70
2018-10-07T16:54:17.618Z,14.60
2018-10-07T16:56:45.785Z,14.50
2018-10-07T16:59:13.952Z,14.40
2018-10-07T17:01:42.097Z,14.40
2018-10-07T17:04:10.336Z,14.20
2018-10-07T17:06:38.461Z,14.10
2018-10-07T17:09:07.400Z,13.90
2018-10-07T17:11:35.577Z,13.70
2018-10-07T17:14:03.741Z,13.60
2018-10-07T17:16:31.928Z,13.30
2018-10-07T17:19:00.113Z,13.00
2018-10-07T17:21:28.318Z,13.00
2018-10-07T17:23:56.601Z,12.80
2018-10-07T17:26:24.773Z,13.00
2018-10-07T17:28:52.957Z,12.90
2018-10-07T17:31:21.180Z,13.00
2018-10-07T17:33:49.362Z,13.00
2018-10-07T17:36:17.522Z,12.80
2018-10-07T17:38:45.718Z,12.60
2018-10-07T17:41:13.880Z,12.40
2018-10-07T17:43:42.082Z,12.30
2018-10-07T17:46:10.253Z,12.20
2018-10-07T17:48:38.462Z,12.20
2018-10-07T17:51:06.610Z,12.10
2018-10-07T17:53:34.813Z,12.10
2018-10-07T17:56:03.382Z,12.10
2018-10-07T17:58:31.593Z,12.30
2018-10-07T18:00:59.762Z,12.30
2018-10-07T18:03:27.949Z,12.30
2018-10-07T18:05:56.187Z,12.30
2018-10-07T18:08:24.387Z,12.10
2018-10-07T18:10:52.581Z,11.90
2018-10-07T18:13:20.805Z,12.00
2018-10-07T18:15:49.043Z,12.00
2018-10-07T18:18:17.234Z,12.10
2018-10-07T18:20:45.429Z,12.00
2018-10-07T18:23:13.635Z,11.80
2018-10-07T18:25:41.809Z,11.70
2018-10-07T18:28:09.996Z,11.60
2018-10-07T18:30:38.189Z,11.50
2018-10-07T18:33:06.437Z,11.50
2018-10-07T18:35:34.618Z,11.50
2018-10-07T18:38:02.797Z,11.50
2018-10-07T18:40:31.004Z,11.50
2018-10-07T18:42:59.194Z,11.60
2018-10-07T18:45:27.404Z,11.60
2018-10-07T18:47:55.577Z,11.60
2018-10-07T18:50:23.772Z,11.60
2018-10-07T18:52:51.974Z,11.60
2018-10-07T18:55:20.217Z,11.60
2018-10-07T18:57:48.393Z,11.60
2018-10-07T19:00:16.621Z,11.50
2018-10-07T19:02:44.979Z,11.50
2018-10-07T19:05:12.986Z,11.40
2018-10-07T19:07:41.169Z,11.40
2018-10-07T19:10:09.353Z,11.40
2018-10-07T19:12:37.521Z,11.30
2018-10-07T19:15:05.700Z,11.20
2018-10-07T19:17:33.859Z,11.20
2018-10-07T19:20:02.097Z,11.20
2018-10-07T19:22:30.249Z,11.10
2018-10-07T19:24:58.476Z,11.10
2018-10-07T19:27:26.631Z,11.00
2018-10-07T19:29:54.825Z,10.90
2018-10-07T19:32:22.981Z,10.80
2018-10-07T19:34:51.191Z,10.60
2018-10-07T19:37:19.635Z,10.70
2018-10-07T19:39:47.677Z,10.60
2018-10-07T19:42:15.876Z,10.60
2018-10-07T19:44:44.547Z,10.70
2018-10-07T19:47:12.711Z,10.70
2018-10-07T19:49:40.889Z,10.70
2018-10-07T19:52:09.117Z,10.60
2018-10-07T19:54:37.277Z,10.50
2018-10-07T19:57:05.457Z,10.40
2018-10-07T19:59:33.683Z,10.40
2018-10-07T20:02:01.785Z,10.40
2018-10-07T20:04:29.989Z,10.30
2018-10-07T20:06:58.145Z,10.30
2018-10-07T20:09:26.354Z,10.30
2018-10-07T20:11:54.534Z,10.30
2018-10-07T20:14:22.718Z,10.10
2018-10-07T20:16:50.906Z,9.90
2018-10-07T20:19:19.133Z,9.90
2018-10-07T20:21:47.237Z,10.00
2018-10-07T20:24:15.432Z,10.10
2018-10-07T20:26:43.609Z,10.00
2018-10-07T20:29:11.776Z,9.80
2018-10-07T20:31:39.951Z,9.70
2018-10-07T20:34:08.158Z,9.60
2018-10-07T20:36:36.319Z,9.60
2018-10-07T20:39:06.956Z,9.60
2018-10-07T20:41:35.386Z,9.50
2018-10-07T20:44:03.661Z,9.30
2018-10-07T20:46:31.847Z,9.30
2018-10-07T20:49:00.010Z,9.40
2018-10-07T20:51:28.178Z,9.40
2018-10-07T20:53:56.998Z,9.20
2018-10-07T20:56:25.141Z,9.10
2018-10-07T20:58:53.837Z,9.10
2018-10-07T21:01:22.003Z,9.00
2018-10-07T21:03:50.177Z,8.90
2018-10-07T21:06:18.729Z,8.90
2018-10-07T21:08:46.900Z,8.80
2018-10-07T21:11:15.069Z,8.80
2018-10-07T21:13:43.217Z,8.70
2018-10-07T21:16:11.374Z,8.80
2018-10-07T21:18:39.548Z,8.80
2018-10-07T21:21:07.697Z,8.80
2018-10-07T21:23:35.849Z,8.70
2018-10-07T21:26:04.013Z,8.70
2018-10-07T21:28:32.190Z,8.60
2018-10-07T21:31:00.366Z,8.50
2018-10-07T21:33:28.553Z,8.40
2018-10-07T21:35:56.746Z,8.50
2018-10-07T21:38:24.922Z,8.40
2018-10-07T21:40:53.253Z,8.30
2018-10-07T21:43:21.429Z,8.30
2018-10-07T21:45:49.609Z,8.20
2018-10-07T21:48:17.954Z,8.30
2018-10-07T21:50:46.096Z,8.20
2018-10-07T21:53:14.269Z,8.20
2018-10-07T21:55:42.425Z,8.20
2018-10-07T21:58:10.593Z,8.10
